sensor_id;sensor_type;location;lat;lon;timestamp;temperature;humidity
38263;DHT22;24054;50.128;19.730;2024-02-15T00:02:07;21.60;52.50
38263;DHT22;24054;50.128;19.730;2024-02-15T00:04:34;21.50;52.30
38263;DHT22;24054;50.128;19.730;2024-02-15T00:07:01;21.50;52.30
38263;DHT22;24054;50.128;19.730;2024-02-15T00:09:28;21.50;52.30
38263;DHT22;24054;50.128;19.730;2024-02-15T00:11:57;21.50;52.20
38263;DHT22;24054;50.128;19.730;2024-02-15T00:14:25;21.50;52.20
38263;DHT22;24054;50.128;19.730;2024-02-15T00:16:53;21.50;52.20
38263;DHT22;24054;50.128;19.730;2024-02-15T00:19:21;21.50;52.10
38263;DHT22;24054;50.128;19.730;2024-02-15T00:21:48;21.50;52.10
38263;DHT22;24054;50.128;19.730;2024-02-15T00:24:15;21.50;52.00
38263;DHT22;24054;50.128;19.730;2024-02-15T00:26:43;21.40;51.90
38263;DHT22;24054;50.128;19.730;2024-02-15T00:29:12;21.40;51.90
38263;DHT22;24054;50.128;19.730;2024-02-15T00:31:39;21.50;51.90
38263;DHT22;24054;50.128;19.730;2024-02-15T00:34:07;21.40;51.80
38263;DHT22;24054;50.128;19.730;2024-02-15T00:36:34;21.40;51.80
38263;DHT22;24054;50.128;19.730;2024-02-15T00:39:01;21.40;51.80
38263;DHT22;24054;50.128;19.730;2024-02-15T00:41:31;21.40;51.70
38263;DHT22;24054;50.128;19.730;2024-02-15T00:43:59;21.40;51.70
38263;DHT22;24054;50.128;19.730;2024-02-15T00:46:28;21.40;51.70
38263;DHT22;24054;50.128;19.730;2024-02-15T00:48:55;21.40;51.60
38263;DHT22;24054;50.128;19.730;2024-02-15T00:51:23;21.40;51.60
38263;DHT22;24054;50.128;19.730;2024-02-15T00:53:50;21.40;52.20
38263;DHT22;24054;50.128;19.730;2024-02-15T00:56:17;21.30;51.50
38263;DHT22;24054;50.128;19.730;2024-02-15T00:58:48;21.40;51.50
38263;DHT22;24054;50.128;19.730;2024-02-15T01:01:15;21.30;51.40
38263;DHT22;24054;50.128;19.730;2024-02-15T01:03:44;21.30;51.40
38263;DHT22;24054;50.128;19.730;2024-02-15T01:06:11;21.30;51.30
38263;DHT22;24054;50.128;19.730;2024-02-15T01:08:38;21.30;51.30
38263;DHT22;24054;50.128;19.730;2024-02-15T01:11:05;21.30;51.20
38263;DHT22;24054;50.128;19.730;2024-02-15T01:13:33;21.30;51.20
38263;DHT22;24054;50.128;19.730;2024-02-15T01:16:00;21.30;51.20
38263;DHT22;24054;50.128;19.730;2024-02-15T01:18:28;21.30;51.20
38263;DHT22;24054;50.128;19.730;2024-02-15T01:20:58;21.20;51.10
38263;DHT22;24054;50.128;19.730;2024-02-15T01:23:26;21.30;51.10
38263;DHT22;24054;50.128;19.730;2024-02-15T01:25:53;21.30;51.10
38263;DHT22;24054;50.128;19.730;2024-02-15T01:28:20;21.30;51.10
38263;DHT22;24054;50.128;19.730;2024-02-15T01:30:47;21.30;51.10
38263;DHT22;24054;50.128;19.730;2024-02-15T01:33:15;21.20;51.00
38263;DHT22;24054;50.128;19.730;2024-02-15T01:35:43;21.20;51.00
38263;DHT22;24054;50.128;19.730;2024-02-15T01:38:12;21.20;50.90
38263;DHT22;24054;50.128;19.730;2024-02-15T01:40:40;21.20;50.90
38263;DHT22;24054;50.128;19.730;2024-02-15T01:43:08;21.20;50.90
38263;DHT22;24054;50.128;19.730;2024-02-15T01:45:35;21.20;50.80
38263;DHT22;24054;50.128;19.730;2024-02-15T01:48:03;21.20;50.80
38263;DHT22;24054;50.128;19.730;2024-02-15T01:50:31;21.20;50.80
38263;DHT22;24054;50.128;19.730;2024-02-15T01:53:01;21.10;50.70
38263;DHT22;24054;50.128;19.730;2024-02-15T01:55:32;21.10;50.70
38263;DHT22;24054;50.128;19.730;2024-02-15T01:58:00;21.20;50.80
38263;DHT22;24054;50.128;19.730;2024-02-15T02:00:28;21.10;50.70
38263;DHT22;24054;50.128;19.730;2024-02-15T02:02:57;21.10;50.70
38263;DHT22;24054;50.128;19.730;2024-02-15T02:05:28;21.10;50.60
38263;DHT22;24054;50.128;19.730;2024-02-15T02:07:56;21.10;50.60
38263;DHT22;24054;50.128;19.730;2024-02-15T02:10:25;21.10;50.60
38263;DHT22;24054;50.128;19.730;2024-02-15T02:12:54;21.10;50.60
38263;DHT22;24054;50.128;19.730;2024-02-15T02:15:21;21.10;50.60
38263;DHT22;24054;50.128;19.730;2024-02-15T02:17:49;21.10;50.60
38263;DHT22;24054;50.128;19.730;2024-02-15T02:20:16;21.10;50.50
38263;DHT22;24054;50.128;19.730;2024-02-15T02:22:45;21.10;50.50
38263;DHT22;24054;50.128;19.730;2024-02-15T02:25:16;21.10;50.50
38263;DHT22;24054;50.128;19.730;2024-02-15T02:27:44;21.00;50.40
38263;DHT22;24054;50.128;19.730;2024-02-15T02:30:14;21.00;50.40
38263;DHT22;24054;50.128;19.730;2024-02-15T02:32:43;21.00;50.40
38263;DHT22;24054;50.128;19.730;2024-02-15T02:35:10;21.00;50.40
38263;DHT22;24054;50.128;19.730;2024-02-15T02:37:38;21.00;50.40
38263;DHT22;24054;50.128;19.730;2024-02-15T02:40:08;21.00;50.40
38263;DHT22;24054;50.128;19.730;2024-02-15T02:42:37;21.00;50.40
38263;DHT22;24054;50.128;19.730;2024-02-15T02:45:13;21.00;50.40
38263;DHT22;24054;50.128;19.730;2024-02-15T02:47:40;21.00;50.40
38263;DHT22;24054;50.128;19.730;2024-02-15T02:50:08;21.00;50.30
38263;DHT22;24054;50.128;19.730;2024-02-15T02:52:35;21.00;50.40
38263;DHT22;24054;50.128;19.730;2024-02-15T02:55:05;21.00;50.40
38263;DHT22;24054;50.128;19.730;2024-02-15T02:57:34;21.00;50.30
38263;DHT22;24054;50.128;19.730;2024-02-15T03:00:05;21.00;50.30
38263;DHT22;24054;50.128;19.730;2024-02-15T03:02:36;20.90;50.30
38263;DHT22;24054;50.128;19.730;2024-02-15T03:05:04;20.90;50.20
38263;DHT22;24054;50.128;19.730;2024-02-15T03:07:33;20.90;50.30
38263;DHT22;24054;50.128;19.730;2024-02-15T03:10:00;20.90;50.30
38263;DHT22;24054;50.128;19.730;2024-02-15T03:12:28;20.90;50.30
38263;DHT22;24054;50.128;19.730;2024-02-15T03:14:55;20.90;50.20
38263;DHT22;24054;50.128;19.730;2024-02-15T03:17:24;20.90;50.20
38263;DHT22;24054;50.128;19.730;2024-02-15T03:19:51;20.90;50.20
38263;DHT22;24054;50.128;19.730;2024-02-15T03:22:19;20.90;50.20
38263;DHT22;24054;50.128;19.730;2024-02-15T03:24:46;20.90;50.20
38263;DHT22;24054;50.128;19.730;2024-02-15T03:27:13;20.90;50.20
38263;DHT22;24054;50.128;19.730;2024-02-15T03:29:40;20.90;50.20
38263;DHT22;24054;50.128;19.730;2024-02-15T03:32:08;20.90;50.20
38263;DHT22;24054;50.128;19.730;2024-02-15T03:34:36;20.80;50.10
38263;DHT22;24054;50.128;19.730;2024-02-15T03:37:05;20.80;50.10
38263;DHT22;24054;50.128;19.730;2024-02-15T03:39:32;20.80;50.10
38263;DHT22;24054;50.128;19.730;2024-02-15T03:41:59;20.80;50.10
38263;DHT22;24054;50.128;19.730;2024-02-15T03:44:26;20.80;50.10
38263;DHT22;24054;50.128;19.730;2024-02-15T03:46:53;20.80;50.10
38263;DHT22;24054;50.128;19.730;2024-02-15T03:49:20;20.80;50.10
38263;DHT22;24054;50.128;19.730;2024-02-15T03:51:49;20.80;50.10
38263;DHT22;24054;50.128;19.730;2024-02-15T03:54:16;20.80;50.10
38263;DHT22;24054;50.128;19.730;2024-02-15T03:56:48;20.80;50.10
38263;DHT22;24054;50.128;19.730;2024-02-15T03:59:17;20.80;50.00
38263;DHT22;24054;50.128;19.730;2024-02-15T04:01:47;20.80;50.10
38263;DHT22;24054;50.128;19.730;2024-02-15T04:04:14;20.80;50.10
38263;DHT22;24054;50.128;19.730;2024-02-15T04:06:41;20.80;50.10
38263;DHT22;24054;50.128;19.730;2024-02-15T04:09:10;20.80;50.00
38263;DHT22;24054;50.128;19.730;2024-02-15T04:11:37;20.80;50.10
38263;DHT22;24054;50.128;19.730;2024-02-15T04:14:04;20.70;50.00
38263;DHT22;24054;50.128;19.730;2024-02-15T04:16:32;20.70;50.00
38263;DHT22;24054;50.128;19.730;2024-02-15T04:19:01;20.70;50.00
38263;DHT22;24054;50.128;19.730;2024-02-15T04:21:29;20.70;50.00
38263;DHT22;24054;50.128;19.730;2024-02-15T04:23:56;20.70;49.90
38263;DHT22;24054;50.128;19.730;2024-02-15T04:26:25;20.70;50.00
38263;DHT22;24054;50.128;19.730;2024-02-15T04:28:52;20.70;50.00
38263;DHT22;24054;50.128;19.730;2024-02-15T04:31:20;20.70;50.00
38263;DHT22;24054;50.128;19.730;2024-02-15T04:33:53;20.70;50.00
38263;DHT22;24054;50.128;19.730;2024-02-15T04:36:20;20.70;50.00
38263;DHT22;24054;50.128;19.730;2024-02-15T04:38:51;20.70;50.00
38263;DHT22;24054;50.128;19.730;2024-02-15T04:41:18;20.70;50.00
38263;DHT22;24054;50.128;19.730;2024-02-15T04:43:50;20.70;50.00
38263;DHT22;24054;50.128;19.730;2024-02-15T04:46:17;20.70;50.00
38263;DHT22;24054;50.128;19.730;2024-02-15T04:48:47;20.70;50.00
38263;DHT22;24054;50.128;19.730;2024-02-15T04:51:16;20.70;50.00
38263;DHT22;24054;50.128;19.730;2024-02-15T04:53:43;20.70;50.00
38263;DHT22;24054;50.128;19.730;2024-02-15T04:56:12;20.70;50.00
38263;DHT22;24054;50.128;19.730;2024-02-15T04:58:40;20.60;50.00
38263;DHT22;24054;50.128;19.730;2024-02-15T05:01:14;20.60;50.00
38263;DHT22;24054;50.128;19.730;2024-02-15T05:03:42;20.60;49.90
38263;DHT22;24054;50.128;19.730;2024-02-15T05:06:09;20.60;50.00
38263;DHT22;24054;50.128;19.730;2024-02-15T05:08:38;20.60;50.60
38263;DHT22;24054;50.128;19.730;2024-02-15T05:11:09;20.60;49.90
38263;DHT22;24054;50.128;19.730;2024-02-15T05:13:41;20.60;49.90
38263;DHT22;24054;50.128;19.730;2024-02-15T05:16:07;20.60;50.00
38263;DHT22;24054;50.128;19.730;2024-02-15T05:18:36;20.60;50.00
38263;DHT22;24054;50.128;19.730;2024-02-15T05:21:06;20.60;50.00
38263;DHT22;24054;50.128;19.730;2024-02-15T05:23:35;20.60;49.90
38263;DHT22;24054;50.128;19.730;2024-02-15T05:26:03;20.60;50.00
38263;DHT22;24054;50.128;19.730;2024-02-15T05:28:30;20.60;50.00
38263;DHT22;24054;50.128;19.730;2024-02-15T05:31:13;20.60;50.00
38263;DHT22;24054;50.128;19.730;2024-02-15T05:33:44;20.60;49.90
38263;DHT22;24054;50.128;19.730;2024-02-15T05:36:13;20.60;49.90
38263;DHT22;24054;50.128;19.730;2024-02-15T05:38:41;20.60;50.00
38263;DHT22;24054;50.128;19.730;2024-02-15T05:41:11;20.60;49.90
38263;DHT22;24054;50.128;19.730;2024-02-15T05:43:39;20.50;49.90
38263;DHT22;24054;50.128;19.730;2024-02-15T05:46:07;20.50;49.90
38263;DHT22;24054;50.128;19.730;2024-02-15T05:48:36;20.50;49.90
38263;DHT22;24054;50.128;19.730;2024-02-15T05:51:07;20.50;49.80
38263;DHT22;24054;50.128;19.730;2024-02-15T05:53:35;20.50;49.90
38263;DHT22;24054;50.128;19.730;2024-02-15T05:56:03;20.50;49.90
38263;DHT22;24054;50.128;19.730;2024-02-15T05:58:31;20.60;49.90
38263;DHT22;24054;50.128;19.730;2024-02-15T06:00:58;20.50;49.90
38263;DHT22;24054;50.128;19.730;2024-02-15T06:03:27;20.50;49.80
38263;DHT22;24054;50.128;19.730;2024-02-15T06:05:54;20.50;49.90
38263;DHT22;24054;50.128;19.730;2024-02-15T06:08:25;20.50;49.90
38263;DHT22;24054;50.128;19.730;2024-02-15T06:10:52;20.50;49.90
38263;DHT22;24054;50.128;19.730;2024-02-15T06:13:20;20.50;50.00
38263;DHT22;24054;50.128;19.730;2024-02-15T06:15:47;20.60;50.30
38263;DHT22;24054;50.128;19.730;2024-02-15T06:18:18;20.60;50.40
38263;DHT22;24054;50.128;19.730;2024-02-15T06:20:47;20.70;50.50
38263;DHT22;24054;50.128;19.730;2024-02-15T06:23:16;20.70;50.40
38263;DHT22;24054;50.128;19.730;2024-02-15T06:25:46;20.70;50.30
38263;DHT22;24054;50.128;19.730;2024-02-15T06:28:13;20.80;50.40
38263;DHT22;24054;50.128;19.730;2024-02-15T06:31:04;20.90;50.40
38263;DHT22;24054;50.128;19.730;2024-02-15T06:33:49;20.90;50.20
38263;DHT22;24054;50.128;19.730;2024-02-15T06:36:33;21.00;50.20
38263;DHT22;24054;50.128;19.730;2024-02-15T06:39:18;21.00;50.20
38263;DHT22;24054;50.128;19.730;2024-02-15T06:42:03;21.10;50.20
38263;DHT22;24054;50.128;19.730;2024-02-15T06:44:32;21.10;50.10
38263;DHT22;24054;50.128;19.730;2024-02-15T06:46:59;21.10;50.10
38263;DHT22;24054;50.128;19.730;2024-02-15T06:49:26;21.20;50.10
38263;DHT22;24054;50.128;19.730;2024-02-15T06:51:53;21.20;50.70
38263;DHT22;24054;50.128;19.730;2024-02-15T06:54:20;21.20;50.10
38263;DHT22;24054;50.128;19.730;2024-02-15T06:56:48;21.20;50.00
38263;DHT22;24054;50.128;19.730;2024-02-15T06:59:19;21.30;50.00
38263;DHT22;24054;50.128;19.730;2024-02-15T07:01:48;21.30;50.00
38263;DHT22;24054;50.128;19.730;2024-02-15T07:04:15;21.40;50.10
38263;DHT22;24054;50.128;19.730;2024-02-15T07:06:42;21.40;50.20
38263;DHT22;24054;50.128;19.730;2024-02-15T07:09:13;21.40;50.40
38263;DHT22;24054;50.128;19.730;2024-02-15T07:11:43;21.50;50.80
38263;DHT22;24054;50.128;19.730;2024-02-15T07:14:12;21.50;50.60
38263;DHT22;24054;50.128;19.730;2024-02-15T07:16:45;21.50;50.50
38263;DHT22;24054;50.128;19.730;2024-02-15T07:19:12;21.50;50.50
38263;DHT22;24054;50.128;19.730;2024-02-15T07:21:40;21.50;50.80
38263;DHT22;24054;50.128;19.730;2024-02-15T07:24:07;21.50;51.20
38263;DHT22;24054;50.128;19.730;2024-02-15T07:26:35;21.60;51.00
38263;DHT22;24054;50.128;19.730;2024-02-15T07:29:02;21.60;51.20
38263;DHT22;24054;50.128;19.730;2024-02-15T07:31:31;21.60;51.50
38263;DHT22;24054;50.128;19.730;2024-02-15T07:34:01;21.60;51.60
38263;DHT22;24054;50.128;19.730;2024-02-15T07:36:29;21.70;51.60
38263;DHT22;24054;50.128;19.730;2024-02-15T07:38:56;21.60;51.30
38263;DHT22;24054;50.128;19.730;2024-02-15T07:41:26;21.60;51.20
38263;DHT22;24054;50.128;19.730;2024-02-15T07:43:54;21.60;51.00
38263;DHT22;24054;50.128;19.730;2024-02-15T07:46:21;21.60;50.90
38263;DHT22;24054;50.128;19.730;2024-02-15T07:48:50;21.60;50.80
38263;DHT22;24054;50.128;19.730;2024-02-15T07:51:19;21.70;50.90
38263;DHT22;24054;50.128;19.730;2024-02-15T07:53:47;21.70;50.70
38263;DHT22;24054;50.128;19.730;2024-02-15T07:56:16;21.70;50.70
38263;DHT22;24054;50.128;19.730;2024-02-15T07:58:46;21.70;50.70
38263;DHT22;24054;50.128;19.730;2024-02-15T08:01:13;21.70;50.70
38263;DHT22;24054;50.128;19.730;2024-02-15T08:03:42;21.70;50.70
38263;DHT22;24054;50.128;19.730;2024-02-15T08:06:11;21.70;50.60
38263;DHT22;24054;50.128;19.730;2024-02-15T08:08:40;21.70;50.60
38263;DHT22;24054;50.128;19.730;2024-02-15T08:11:08;21.70;50.50
38263;DHT22;24054;50.128;19.730;2024-02-15T08:13:43;21.70;50.50
38263;DHT22;24054;50.128;19.730;2024-02-15T08:16:10;21.80;50.70
38263;DHT22;24054;50.128;19.730;2024-02-15T08:18:38;21.80;50.80
38263;DHT22;24054;50.128;19.730;2024-02-15T08:21:05;21.80;50.90
38263;DHT22;24054;50.128;19.730;2024-02-15T08:23:32;21.80;51.20
38263;DHT22;24054;50.128;19.730;2024-02-15T08:26:01;21.80;51.20
38263;DHT22;24054;50.128;19.730;2024-02-15T08:28:28;21.80;51.30
38263;DHT22;24054;50.128;19.730;2024-02-15T08:30:56;21.80;51.40
38263;DHT22;24054;50.128;19.730;2024-02-15T08:33:23;21.90;51.50
38263;DHT22;24054;50.128;19.730;2024-02-15T08:35:50;21.90;51.60
38263;DHT22;24054;50.128;19.730;2024-02-15T08:38:21;21.90;51.70
38263;DHT22;24054;50.128;19.730;2024-02-15T08:40:48;22.00;51.70
38263;DHT22;24054;50.128;19.730;2024-02-15T08:43:17;22.00;51.70
38263;DHT22;24054;50.128;19.730;2024-02-15T08:45:44;22.00;51.70
38263;DHT22;24054;50.128;19.730;2024-02-15T08:48:11;22.00;51.60
38263;DHT22;24054;50.128;19.730;2024-02-15T08:50:39;22.00;51.40
38263;DHT22;24054;50.128;19.730;2024-02-15T08:53:07;22.00;51.20
38263;DHT22;24054;50.128;19.730;2024-02-15T08:55:37;22.00;51.20
38263;DHT22;24054;50.128;19.730;2024-02-15T08:58:04;22.00;51.40
38263;DHT22;24054;50.128;19.730;2024-02-15T09:00:33;22.10;51.60
38263;DHT22;24054;50.128;19.730;2024-02-15T09:03:00;22.10;51.60
38263;DHT22;24054;50.128;19.730;2024-02-15T09:05:27;22.10;51.60
38263;DHT22;24054;50.128;19.730;2024-02-15T09:07:54;22.20;52.50
38263;DHT22;24054;50.128;19.730;2024-02-15T09:10:21;22.20;52.30
38263;DHT22;24054;50.128;19.730;2024-02-15T09:12:49;22.20;52.20
38263;DHT22;24054;50.128;19.730;2024-02-15T09:15:16;22.30;52.60
38263;DHT22;24054;50.128;19.730;2024-02-15T09:17:45;22.30;52.70
38263;DHT22;24054;50.128;19.730;2024-02-15T09:20:13;22.30;52.60
38263;DHT22;24054;50.128;19.730;2024-02-15T09:22:47;22.40;52.60
38263;DHT22;24054;50.128;19.730;2024-02-15T09:25:14;22.40;52.70
38263;DHT22;24054;50.128;19.730;2024-02-15T09:27:43;22.40;52.70
38263;DHT22;24054;50.128;19.730;2024-02-15T09:30:12;22.40;52.70
38263;DHT22;24054;50.128;19.730;2024-02-15T09:32:39;22.50;52.90
38263;DHT22;24054;50.128;19.730;2024-02-15T09:35:10;22.50;53.10
38263;DHT22;24054;50.128;19.730;2024-02-15T09:37:42;22.50;53.10
38263;DHT22;24054;50.128;19.730;2024-02-15T09:40:11;22.60;53.10
38263;DHT22;24054;50.128;19.730;2024-02-15T09:42:38;22.60;53.20
38263;DHT22;24054;50.128;19.730;2024-02-15T09:45:06;22.60;53.30
38263;DHT22;24054;50.128;19.730;2024-02-15T09:47:37;22.60;53.30
38263;DHT22;24054;50.128;19.730;2024-02-15T09:50:08;22.60;53.30
38263;DHT22;24054;50.128;19.730;2024-02-15T09:52:39;22.70;53.30
38263;DHT22;24054;50.128;19.730;2024-02-15T09:55:07;22.70;53.50
38263;DHT22;24054;50.128;19.730;2024-02-15T09:57:39;22.70;53.10
38263;DHT22;24054;50.128;19.730;2024-02-15T10:00:07;22.70;52.70
38263;DHT22;24054;50.128;19.730;2024-02-15T10:02:39;22.70;52.60
38263;DHT22;24054;50.128;19.730;2024-02-15T10:05:09;22.70;52.70
38263;DHT22;24054;50.128;19.730;2024-02-15T10:07:38;22.60;52.50
38263;DHT22;24054;50.128;19.730;2024-02-15T10:10:15;22.60;52.30
38263;DHT22;24054;50.128;19.730;2024-02-15T10:12:44;22.60;52.20
38263;DHT22;24054;50.128;19.730;2024-02-15T10:15:27;22.60;52.10
38263;DHT22;24054;50.128;19.730;2024-02-15T10:17:56;22.60;52.00
38263;DHT22;24054;50.128;19.730;2024-02-15T10:20:25;22.70;51.90
38263;DHT22;24054;50.128;19.730;2024-02-15T10:22:53;22.70;51.80
38263;DHT22;24054;50.128;19.730;2024-02-15T10:25:21;22.70;51.70
38263;DHT22;24054;50.128;19.730;2024-02-15T10:27:49;22.80;51.50
38263;DHT22;24054;50.128;19.730;2024-02-15T10:30:17;22.80;51.30
38263;DHT22;24054;50.128;19.730;2024-02-15T10:32:45;22.90;51.10
38263;DHT22;24054;50.128;19.730;2024-02-15T10:35:23;23.00;50.80
38263;DHT22;24054;50.128;19.730;2024-02-15T10:38:06;23.10;50.60
38263;DHT22;24054;50.128;19.730;2024-02-15T10:40:35;23.30;50.50
38263;DHT22;24054;50.128;19.730;2024-02-15T10:43:04;23.40;50.20
38263;DHT22;24054;50.128;19.730;2024-02-15T10:45:32;23.50;50.00
38263;DHT22;24054;50.128;19.730;2024-02-15T10:48:00;23.70;49.90
38263;DHT22;24054;50.128;19.730;2024-02-15T10:50:27;23.70;50.00
38263;DHT22;24054;50.128;19.730;2024-02-15T10:52:56;23.80;50.10
38263;DHT22;24054;50.128;19.730;2024-02-15T10:55:37;24.00;49.90
38263;DHT22;24054;50.128;19.730;2024-02-15T10:58:06;24.10;49.80
38263;DHT22;24054;50.128;19.730;2024-02-15T11:00:33;24.20;49.70
38263;DHT22;24054;50.128;19.730;2024-02-15T11:03:04;24.30;49.60
38263;DHT22;24054;50.128;19.730;2024-02-15T11:05:32;24.40;49.40
38263;DHT22;24054;50.128;19.730;2024-02-15T11:08:01;24.40;49.30
38263;DHT22;24054;50.128;19.730;2024-02-15T11:10:31;24.50;49.30
38263;DHT22;24054;50.128;19.730;2024-02-15T11:12:59;24.60;49.40
38263;DHT22;24054;50.128;19.730;2024-02-15T11:15:45;24.50;42.90
38263;DHT22;24054;50.128;19.730;2024-02-15T11:18:42;23.90;41.70
38263;DHT22;24054;50.128;19.730;2024-02-15T11:21:10;23.70;45.60
38263;DHT22;24054;50.128;19.730;2024-02-15T11:23:37;23.90;45.60
38263;DHT22;24054;50.128;19.730;2024-02-15T11:26:42;24.00;45.00
38263;DHT22;24054;50.128;19.730;2024-02-15T11:29:03;24.10;44.70
38263;DHT22;24054;50.128;19.730;2024-02-15T11:31:52;24.20;44.20
38263;DHT22;24054;50.128;19.730;2024-02-15T11:34:46;24.20;44.20
38263;DHT22;24054;50.128;19.730;2024-02-15T11:40:22;24.30;43.00
38263;DHT22;24054;50.128;19.730;2024-02-15T11:45:32;24.20;41.60
38263;DHT22;24054;50.128;19.730;2024-02-15T11:48:00;24.10;42.00
38263;DHT22;24054;50.128;19.730;2024-02-15T11:50:28;24.10;42.90
38263;DHT22;24054;50.128;19.730;2024-02-15T11:53:03;24.30;42.90
38263;DHT22;24054;50.128;19.730;2024-02-15T11:55:31;24.30;43.00
38263;DHT22;24054;50.128;19.730;2024-02-15T11:58:01;24.40;43.30
38263;DHT22;24054;50.128;19.730;2024-02-15T12:00:32;24.40;43.30
38263;DHT22;24054;50.128;19.730;2024-02-15T12:03:18;24.50;43.30
38263;DHT22;24054;50.128;19.730;2024-02-15T12:06:03;24.50;42.70
38263;DHT22;24054;50.128;19.730;2024-02-15T12:08:48;24.50;42.50
38263;DHT22;24054;50.128;19.730;2024-02-15T12:11:33;24.50;42.30
38263;DHT22;24054;50.128;19.730;2024-02-15T12:14:18;24.50;42.60
38263;DHT22;24054;50.128;19.730;2024-02-15T12:17:04;24.50;41.80
38263;DHT22;24054;50.128;19.730;2024-02-15T12:19:49;24.50;41.80
38263;DHT22;24054;50.128;19.730;2024-02-15T12:22:18;24.60;41.30
38263;DHT22;24054;50.128;19.730;2024-02-15T12:24:53;24.60;40.70
38263;DHT22;24054;50.128;19.730;2024-02-15T12:27:22;24.60;40.70
38263;DHT22;24054;50.128;19.730;2024-02-15T12:29:56;24.70;40.80
38263;DHT22;24054;50.128;19.730;2024-02-15T12:32:26;24.70;40.80
38263;DHT22;24054;50.128;19.730;2024-02-15T12:34:53;24.70;40.50
38263;DHT22;24054;50.128;19.730;2024-02-15T12:37:35;24.70;40.30
38263;DHT22;24054;50.128;19.730;2024-02-15T12:40:10;24.70;40.40
38263;DHT22;24054;50.128;19.730;2024-02-15T12:42:41;24.70;40.60
38263;DHT22;24054;50.128;19.730;2024-02-15T12:45:15;24.70;40.50
38263;DHT22;24054;50.128;19.730;2024-02-15T12:47:47;24.70;40.00
38263;DHT22;24054;50.128;19.730;2024-02-15T12:50:16;24.60;39.80
38263;DHT22;24054;50.128;19.730;2024-02-15T12:52:45;24.50;39.70
38263;DHT22;24054;50.128;19.730;2024-02-15T12:55:14;24.40;39.50
38263;DHT22;24054;50.128;19.730;2024-02-15T12:57:43;24.20;38.90
38263;DHT22;24054;50.128;19.730;2024-02-15T13:00:14;24.20;38.80
38263;DHT22;24054;50.128;19.730;2024-02-15T13:02:44;24.00;38.70
38263;DHT22;24054;50.128;19.730;2024-02-15T13:05:15;24.00;38.90
38263;DHT22;24054;50.128;19.730;2024-02-15T13:07:44;23.90;39.20
38263;DHT22;24054;50.128;19.730;2024-02-15T13:10:11;23.90;40.10
38263;DHT22;24054;50.128;19.730;2024-02-15T13:12:40;23.80;40.80
38263;DHT22;24054;50.128;19.730;2024-02-15T13:15:10;23.80;41.30
38263;DHT22;24054;50.128;19.730;2024-02-15T13:17:40;23.80;41.80
38263;DHT22;24054;50.128;19.730;2024-02-15T13:20:08;23.80;42.30
38263;DHT22;24054;50.128;19.730;2024-02-15T13:22:41;23.80;42.70
38263;DHT22;24054;50.128;19.730;2024-02-15T13:25:09;23.80;43.10
38263;DHT22;24054;50.128;19.730;2024-02-15T13:27:37;23.80;43.40
38263;DHT22;24054;50.128;19.730;2024-02-15T13:30:06;23.80;43.50
38263;DHT22;24054;50.128;19.730;2024-02-15T13:32:35;23.70;43.70
38263;DHT22;24054;50.128;19.730;2024-02-15T13:35:03;23.70;43.90
38263;DHT22;24054;50.128;19.730;2024-02-15T13:37:41;23.70;44.20
38263;DHT22;24054;50.128;19.730;2024-02-15T13:40:10;23.70;44.50
38263;DHT22;24054;50.128;19.730;2024-02-15T13:42:42;23.70;44.80
38263;DHT22;24054;50.128;19.730;2024-02-15T13:45:15;23.60;44.90
38263;DHT22;24054;50.128;19.730;2024-02-15T13:47:44;23.60;45.00
38263;DHT22;24054;50.128;19.730;2024-02-15T13:50:13;23.60;45.20
38263;DHT22;24054;50.128;19.730;2024-02-15T13:52:43;23.60;45.50
38263;DHT22;24054;50.128;19.730;2024-02-15T13:55:12;23.60;45.80
38263;DHT22;24054;50.128;19.730;2024-02-15T13:57:40;23.60;46.10
38263;DHT22;24054;50.128;19.730;2024-02-15T14:00:08;23.60;46.30
38263;DHT22;24054;50.128;19.730;2024-02-15T14:02:40;23.60;46.60
38263;DHT22;24054;50.128;19.730;2024-02-15T14:05:08;23.60;46.70
38263;DHT22;24054;50.128;19.730;2024-02-15T14:07:37;23.60;46.90
38263;DHT22;24054;50.128;19.730;2024-02-15T14:10:08;23.60;47.00
38263;DHT22;24054;50.128;19.730;2024-02-15T14:12:38;23.50;47.10
38263;DHT22;24054;50.128;19.730;2024-02-15T14:15:06;23.50;47.10
38263;DHT22;24054;50.128;19.730;2024-02-15T14:17:34;23.50;47.40
38263;DHT22;24054;50.128;19.730;2024-02-15T14:20:01;23.40;47.40
38263;DHT22;24054;50.128;19.730;2024-02-15T14:22:30;23.40;47.50
38263;DHT22;24054;50.128;19.730;2024-02-15T14:24:57;23.40;47.60
38263;DHT22;24054;50.128;19.730;2024-02-15T14:27:25;23.40;47.60
38263;DHT22;24054;50.128;19.730;2024-02-15T14:29:52;23.40;47.70
38263;DHT22;24054;50.128;19.730;2024-02-15T14:32:37;23.30;47.80
38263;DHT22;24054;50.128;19.730;2024-02-15T14:35:21;23.30;47.90
38263;DHT22;24054;50.128;19.730;2024-02-15T14:37:49;23.20;48.00
38263;DHT22;24054;50.128;19.730;2024-02-15T14:40:16;23.20;48.40
38263;DHT22;24054;50.128;19.730;2024-02-15T14:42:46;23.20;48.30
38263;DHT22;24054;50.128;19.730;2024-02-15T14:45:13;23.20;48.50
38263;DHT22;24054;50.128;19.730;2024-02-15T14:47:40;23.20;49.00
38263;DHT22;24054;50.128;19.730;2024-02-15T14:50:09;23.20;49.30
38263;DHT22;24054;50.128;19.730;2024-02-15T14:52:38;23.10;45.80
38263;DHT22;24054;50.128;19.730;2024-02-15T14:55:06;23.10;46.10
38263;DHT22;24054;50.128;19.730;2024-02-15T14:57:34;23.00;43.20
38263;DHT22;24054;50.128;19.730;2024-02-15T15:00:03;22.90;41.70
38263;DHT22;24054;50.128;19.730;2024-02-15T15:02:35;22.80;43.40
38263;DHT22;24054;50.128;19.730;2024-02-15T15:05:02;22.70;44.60
38263;DHT22;24054;50.128;19.730;2024-02-15T15:07:44;22.80;45.60
38263;DHT22;24054;50.128;19.730;2024-02-15T15:10:29;22.80;45.80
38263;DHT22;24054;50.128;19.730;2024-02-15T15:13:13;22.80;46.80
38263;DHT22;24054;50.128;19.730;2024-02-15T15:15:43;22.80;46.40
38263;DHT22;24054;50.128;19.730;2024-02-15T15:18:11;22.80;46.60
38263;DHT22;24054;50.128;19.730;2024-02-15T15:20:38;22.80;46.80
38263;DHT22;24054;50.128;19.730;2024-02-15T15:23:06;22.80;47.00
38263;DHT22;24054;50.128;19.730;2024-02-15T15:25:34;22.80;47.10
38263;DHT22;24054;50.128;19.730;2024-02-15T15:28:03;22.80;47.40
38263;DHT22;24054;50.128;19.730;2024-02-15T15:30:31;22.80;47.60
38263;DHT22;24054;50.128;19.730;2024-02-15T15:33:00;22.90;47.90
38263;DHT22;24054;50.128;19.730;2024-02-15T15:35:27;22.80;47.70
38263;DHT22;24054;50.128;19.730;2024-02-15T15:37:55;22.80;47.70